Flight Track Log - Related Links

Times and Time Zones

All times are in EDT time to prevent confusion due to time zone crossing. See the N541JD flight status page for this flight to view local times or setup timezone preferences in your user account.

Time Position Orientation Groundspeed Altitude Reporting Facility
EDT Latitude Longitude Course Direction KTS MPH feet Rate Location/Type
Sun 11:46:41 AM 33.2800 -86.9386 184° South 108 124 2,000  Level Atlanta Center
Sun 11:48:11 AM 33.2236 -86.9392 180° South 174 200 2,500 388 Climbing Atlanta Center
Sun 11:49:00 AM 33.1881 -86.9406 182° South 171 197 2,900 263 Climbing Atlanta Center
Sun 11:53:31 AM 32.9792 -86.9483 184° South 177 204 3,900 153 Climbing Atlanta Center
Sun 11:56:50 AM 32.8200 -86.9728 184° South 175 201 4,100 46 Climbing Atlanta Center
Sun 11:57:50 AM 32.7742 -86.9761 183° South 189 217 4,100 -50 Level Atlanta Center
Sun 11:58:00 AM 32.8407 -86.9615 184° South  Level FlightAware Approximate
Sun 11:58:50 AM 32.7197 -86.9842 187° South 171 197 4,000  Level Atlanta Center
Sun 11:59:50 AM 32.6758 -86.9853 181° South 171 197 4,000  Level Atlanta Center
Sun 12:00:50 PM 32.6233 -86.9908 185° South 176 203 4,000  Level Atlanta Center
Sun 12:01:32 PM 32.5964 -86.9925 183° South 176 203 4,000  Level Atlanta Center
Sun 12:01:50 PM 32.5711 -86.9967 188° South 176 203 4,000  Level Atlanta Center
Sun 12:02:50 PM 32.5314 -87.0003 184° South 193 222 4,000 -50 Level Atlanta Center
Sun 12:03:50 PM 32.4833 -87.0036 183° South 195 224 3,900 -50 Descending Atlanta Center
Sun 12:04:00 PM 32.4801 -87.0038 183° South  Level FlightAware Approximate
Sun 12:04:50 PM 32.4353 -87.0092 186° South 183 211 3,900  Level Atlanta Center
Sun 12:05:50 PM 32.3869 -87.0150 186° South 183 211 4,000 50 Climbing Atlanta Center
Sun 12:06:50 PM 32.3411 -87.0183 184° South 183 211 4,000  Level Atlanta Center
Sun 12:07:50 PM 32.2867 -87.0214 183° South 177 204 4,000  Level Atlanta Center
Sun 12:08:50 PM 32.2386 -87.0272 186° South 177 204 4,000  Level Atlanta Center
Sun 12:09:50 PM 32.1906 -87.0306 183° South 177 204 4,000  Level Atlanta Center
Sun 12:10:50 PM 32.1444 -87.0339 184° South 177 204 4,000  Level Atlanta Center
Sun 12:11:50 PM 32.0964 -87.0397 186° South 177 204 4,000  Level Atlanta Center
Sun 12:12:50 PM 32.0483 -87.0431 183° South 177 204 4,000  Level Atlanta Center
Sun 12:13:50 PM 32.0022 -87.0486 186° South 177 204 4,000  Level Atlanta Center
Sun 12:14:50 PM 31.9519 -87.0519 183° South 177 204 4,000  Level Atlanta Center
Sun 12:15:50 PM 31.9058 -87.0578 186° South 177 204 4,000  Level Atlanta Center
Sun 12:16:50 PM 31.8578 -87.0636 186° South 177 204 4,000  Level Atlanta Center
Sun 12:20:15 PM 31.6944 -87.0797 185° South 181 208 4,000  Level Jacksonville Center
Sun 12:21:15 PM 31.6442 -87.0825 183° South 194 223 4,000  Level Jacksonville Center
Sun 12:22:15 PM 31.5981 -87.0878 186° South 174 200 4,000  Level Jacksonville Center
Sun 12:23:15 PM 31.5542 -87.0931 186° South 192 221 4,000  Level Jacksonville Center
Sun 12:24:15 PM 31.5081 -87.0983 186° South 192 221 4,000  Level Jacksonville Center
Sun 12:25:15 PM 31.4619 -87.1033 185° South 192 221 4,000  Level Jacksonville Center
Sun 12:26:15 PM 31.4117 -87.1061 183° South 192 221 4,000  Level Jacksonville Center
Sun 12:27:15 PM 31.3678 -87.1114 186° South 192 221 4,000  Level Jacksonville Center
Sun 12:28:15 PM 31.3197 -87.1142 183° South 184 212 4,000  Level Jacksonville Center
Sun 12:29:14 PM 31.2653 -87.1189 184° South 172 198 4,000  Level Jacksonville Center
Sun 12:29:44 PM 31.2422 -87.1203 183° South 172 198 4,000  Level Jacksonville Center
Sun 12:30:15 PM 31.2233 -87.1219 184° South 179 206 4,000  Level Jacksonville Center
Sun 12:30:51 PM 31.1897 -87.1278 188° South 171 197 4,000  Level Jacksonville Center
Sun 12:31:15 PM 31.1753 -87.1247 170° South 179 206 4,000  Level Jacksonville Center
Sun 12:31:52 PM 31.1397 -87.1303 188° South 171 197 4,000  Level Jacksonville Center
Sun 12:32:15 PM 31.1272 -87.1297 178° South 179 206 4,000  Level Jacksonville Center
Sun 12:32:59 PM 31.0853 -87.1350 186° South 170 196 4,000  Level Jacksonville Center
Sun 12:33:15 PM 31.0811 -87.1347 177° South 179 206 4,000  Level Jacksonville Center
Sun 12:34:15 PM 31.0350 -87.1378 183° South 179 206 4,000  Level Jacksonville Center
Sun 12:35:00 PM 30.9908 -87.1431 186° South 171 197 4,000  Level Jacksonville Center
Sun 12:35:15 PM 30.9867 -87.1428 177° South 174 200 4,000  Level Jacksonville Center
Sun 12:36:00 PM 30.9425 -87.1578 196° South 172 198 4,000  Level Jacksonville Center
Sun 12:36:15 PM 30.9425 -87.1553 90° East 174 200 4,000  Level Jacksonville Center
Sun 12:37:01 PM 30.8981 -87.1728 199° South 170 196 4,000  Level Jacksonville Center
Sun 12:37:15 PM 30.8961 -87.1725 173° South 174 200 4,000  Level Jacksonville Center
Sun 12:38:02 PM 30.8517 -87.1875 196° South 171 197 4,000  Level Jacksonville Center
Sun 12:38:15 PM 30.8497 -87.1875 180° South 174 200 4,000  Level Jacksonville Center
Sun 12:39:08 PM 30.8031 -87.2022 195° South 170 196 4,000  Level Jacksonville Center
Sun 12:40:03 PM 30.7589 -87.2172 196° South 171 197 4,000 -103 Level Jacksonville Center
Sun 12:41:04 PM 30.7144 -87.2344 198° South 173 199 3,800 -261 Descending Jacksonville Center
Sun 12:41:58 PM 30.6719 -87.2589 206° Southwest 184 212 3,500 -365 Descending Jacksonville Center
Sun 12:42:59 PM 30.6311 -87.2933 216° Southwest 185 213 3,100 -422 Descending Jacksonville Center
Sun 12:44:06 PM 30.5858 -87.3347 218° Southwest 183 211 2,600 -446 Descending Jacksonville Center
Sun 12:45:00 PM 30.5450 -87.3642 212° Southwest 182 209 2,200 -365 Descending Jacksonville Center
Sun 12:46:01 PM 30.5061 -87.4008 219° Southwest 181 208 1,900 -344 Descending Jacksonville Center
Sun 12:47:02 PM 30.4644 -87.4014 181° South 176 203 1,500 -149 Descending Jacksonville Center
Sun 12:48:02 PM 30.4514 -87.3525 107° East 151 174 1,600 50 Climbing Jacksonville Center
Sun 12:49:03 PM 30.4492 -87.3019 93° East 158 182 1,600 -98 Level Jacksonville Center
Sun 12:50:04 PM 30.4611 -87.2542 74° East 150 173 1,400 -197 Descending Jacksonville Center

Login

Don't have an account? Register now (free) for customized features, flight alerts, and more!